createdAt,value
2017-10-30T00:02:17.980Z,79.70
2017-10-30T00:04:45.546Z,79.30
2017-10-30T00:07:13.045Z,79.00
2017-10-30T00:09:40.536Z,79.20
2017-10-30T00:12:08.074Z,79.00
2017-10-30T00:14:35.553Z,79.20
2017-10-30T00:17:03.120Z,78.80
2017-10-30T00:19:30.784Z,78.80
2017-10-30T00:21:58.324Z,78.90
2017-10-30T00:24:26.589Z,79.60
2017-10-30T00:26:54.124Z,79.50
2017-10-30T00:29:21.627Z,79.10
2017-10-30T00:31:49.932Z,79.60
2017-10-30T00:34:17.474Z,79.60
2017-10-30T00:36:45.125Z,80.20
2017-10-30T00:39:12.629Z,80.90
2017-10-30T00:41:40.186Z,81.30
2017-10-30T00:44:07.779Z,81.30
2017-10-30T00:46:36.196Z,82.10
2017-10-30T00:49:03.688Z,81.90
2017-10-30T00:51:31.721Z,82.40
2017-10-30T00:53:59.227Z,83.10
2017-10-30T00:56:27.570Z,83.50
2017-10-30T00:58:55.114Z,84.50
2017-10-30T01:01:22.640Z,85.10
2017-10-30T01:03:50.151Z,85.40
2017-10-30T01:06:17.702Z,85.40
2017-10-30T01:08:45.323Z,85.10
2017-10-30T01:11:13.691Z,83.80
2017-10-30T01:13:41.215Z,83.70
2017-10-30T01:16:08.738Z,83.60
2017-10-30T01:18:36.276Z,83.40
2017-10-30T01:21:04.585Z,83.00
2017-10-30T01:23:32.127Z,82.90
2017-10-30T01:26:00.402Z,82.60
2017-10-30T01:28:27.924Z,82.50
2017-10-30T01:30:55.471Z,82.80
2017-10-30T01:33:22.986Z,83.00
2017-10-30T01:35:50.528Z,83.00
2017-10-30T01:38:18.110Z,82.80
2017-10-30T01:40:45.652Z,82.60
2017-10-30T01:43:13.170Z,82.20
2017-10-30T01:45:40.658Z,82.50
2017-10-30T01:48:09.107Z,82.30
2017-10-30T01:50:36.618Z,82.20
2017-10-30T01:53:04.146Z,82.20
2017-10-30T01:55:31.687Z,82.80
2017-10-30T01:57:59.195Z,84.40
2017-10-30T02:00:26.776Z,84.50
2017-10-30T02:02:54.293Z,84.10
2017-10-30T02:05:22.583Z,83.90
2017-10-30T02:07:50.873Z,82.80
2017-10-30T02:10:18.968Z,82.70
2017-10-30T02:12:46.480Z,82.60
2017-10-30T02:15:14.800Z,83.30
2017-10-30T02:17:42.363Z,83.10
2017-10-30T02:20:09.921Z,83.20
2017-10-30T02:22:37.483Z,83.00
2017-10-30T02:25:05.024Z,83.40
2017-10-30T02:27:32.813Z,83.90
2017-10-30T02:30:00.348Z,83.90
2017-10-30T02:32:27.899Z,84.00
2017-10-30T02:34:55.428Z,84.50
2017-10-30T02:37:23.714Z,85.10
2017-10-30T02:39:51.232Z,85.10
2017-10-30T02:42:18.786Z,85.10
2017-10-30T02:44:46.296Z,85.20
2017-10-30T02:47:13.860Z,85.10
2017-10-30T02:49:41.935Z,85.10
2017-10-30T02:52:10.026Z,85.20
2017-10-30T02:54:37.547Z,85.80
2017-10-30T02:57:05.816Z,86.10
2017-10-30T02:59:33.356Z,86.00
2017-10-30T03:02:00.864Z,86.30
2017-10-30T03:04:28.403Z,86.30
2017-10-30T03:06:55.931Z,86.60
2017-10-30T03:09:23.423Z,86.80
2017-10-30T03:11:50.968Z,86.70
2017-10-30T03:14:18.460Z,86.80
2017-10-30T03:16:45.977Z,86.70
2017-10-30T03:19:13.513Z,86.90
2017-10-30T03:21:41.052Z,87.00
2017-10-30T03:24:08.567Z,86.90
2017-10-30T03:26:36.869Z,86.90
2017-10-30T03:29:04.370Z,86.80
2017-10-30T03:31:31.887Z,86.80
2017-10-30T03:33:59.432Z,86.90
2017-10-30T03:36:26.928Z,86.80
2017-10-30T03:38:54.424Z,86.80
2017-10-30T03:41:21.945Z,86.70
2017-10-30T03:43:50.014Z,87.00
2017-10-30T03:46:17.552Z,86.50
2017-10-30T03:48:45.067Z,86.00
2017-10-30T03:51:12.625Z,85.90
2017-10-30T03:53:40.140Z,86.10
2017-10-30T03:56:07.672Z,85.90
2017-10-30T03:58:35.935Z,85.20
2017-10-30T04:01:03.433Z,85.30
2017-10-30T04:03:30.984Z,85.00
2017-10-30T04:05:58.490Z,85.00
2017-10-30T04:08:25.982Z,84.50
2017-10-30T04:10:53.521Z,83.40
2017-10-30T04:13:21.009Z,82.80
2017-10-30T04:15:49.360Z,81.80
2017-10-30T04:18:17.632Z,81.20
2017-10-30T04:20:45.186Z,81.10
2017-10-30T04:23:12.705Z,81.20
2017-10-30T04:25:40.271Z,80.60
2017-10-30T04:28:08.052Z,80.70
2017-10-30T04:30:35.605Z,81.10
2017-10-30T04:33:03.096Z,81.00
2017-10-30T04:35:31.353Z,81.50
2017-10-30T04:37:58.881Z,81.50
2017-10-30T04:40:26.418Z,81.40
2017-10-30T04:42:53.956Z,81.70
2017-10-30T04:45:21.465Z,81.80
2017-10-30T04:47:49.472Z,82.40
2017-10-30T04:50:17.782Z,83.30
2017-10-30T04:52:45.335Z,83.20
2017-10-30T04:55:12.868Z,83.40
2017-10-30T04:57:41.635Z,83.70
2017-10-30T05:00:09.685Z,83.70
2017-10-30T05:02:37.221Z,84.20
2017-10-30T05:05:04.733Z,84.60
2017-10-30T05:07:32.255Z,84.70
2017-10-30T05:10:00.210Z,84.60
2017-10-30T05:12:27.747Z,85.20
2017-10-30T05:14:56.015Z,84.90
2017-10-30T05:17:23.552Z,84.90
2017-10-30T05:19:51.057Z,84.50
2017-10-30T05:22:18.598Z,84.40
2017-10-30T05:24:46.860Z,84.50
2017-10-30T05:27:14.431Z,83.60
2017-10-30T05:29:41.974Z,83.10
2017-10-30T05:32:09.515Z,83.30
2017-10-30T05:34:37.708Z,83.00
2017-10-30T05:37:05.244Z,82.40
2017-10-30T05:39:32.751Z,82.40
2017-10-30T05:42:00.263Z,82.10
2017-10-30T05:44:27.767Z,82.40
2017-10-30T05:46:55.299Z,82.20
2017-10-30T05:49:23.573Z,81.30
2017-10-30T05:51:51.073Z,81.30
2017-10-30T05:54:18.582Z,81.90
2017-10-30T05:56:46.102Z,81.80
2017-10-30T05:59:13.604Z,81.60
2017-10-30T06:01:41.195Z,81.80
2017-10-30T06:04:08.691Z,82.30
2017-10-30T06:06:36.287Z,82.70
2017-10-30T06:09:03.811Z,82.70
2017-10-30T06:11:31.328Z,82.80
2017-10-30T06:13:58.858Z,82.50
2017-10-30T06:16:26.397Z,82.70
2017-10-30T06:18:53.952Z,81.80
2017-10-30T06:21:21.494Z,82.20
2017-10-30T06:23:49.029Z,82.90
2017-10-30T06:26:16.594Z,82.50
2017-10-30T06:28:44.080Z,82.50
2017-10-30T06:31:11.613Z,81.90
2017-10-30T06:33:39.312Z,82.40
2017-10-30T06:36:06.806Z,82.30
2017-10-30T06:38:35.105Z,82.20
2017-10-30T06:41:02.652Z,82.20
2017-10-30T06:43:30.193Z,82.40
2017-10-30T06:45:58.515Z,81.60
2017-10-30T06:48:26.020Z,81.50
2017-10-30T06:50:53.544Z,81.50
2017-10-30T06:53:21.119Z,81.70
2017-10-30T06:55:48.652Z,81.50
2017-10-30T06:58:16.155Z,81.60
2017-10-30T07:00:43.830Z,82.10
2017-10-30T07:03:12.143Z,80.90
2017-10-30T07:05:39.701Z,80.90
2017-10-30T07:08:07.200Z,80.60
2017-10-30T07:10:35.379Z,81.00
2017-10-30T07:13:02.959Z,80.40
2017-10-30T07:15:30.476Z,80.60
2017-10-30T07:17:58.059Z,80.40
2017-10-30T07:20:25.607Z,80.00
2017-10-30T07:22:53.152Z,80.40
2017-10-30T07:25:20.664Z,80.30
2017-10-30T07:27:48.980Z,79.10
2017-10-30T07:30:16.510Z,79.00
2017-10-30T07:32:44.029Z,79.20
2017-10-30T07:35:11.613Z,79.40
2017-10-30T07:37:39.118Z,78.60
2017-10-30T07:40:06.664Z,78.60
2017-10-30T07:42:34.193Z,78.00
2017-10-30T07:45:02.468Z,78.30
2017-10-30T07:47:30.037Z,78.30
2017-10-30T07:49:57.559Z,78.50
2017-10-30T07:52:25.172Z,77.70
2017-10-30T07:54:52.724Z,76.60
2017-10-30T07:57:20.243Z,76.70
2017-10-30T07:59:47.763Z,76.50
2017-10-30T08:02:15.980Z,77.00
2017-10-30T08:04:43.474Z,76.90
2017-10-30T08:07:12.175Z,75.90
2017-10-30T08:09:39.725Z,76.10
2017-10-30T08:12:07.285Z,75.60
2017-10-30T08:14:34.895Z,75.10
2017-10-30T08:17:02.493Z,75.40
2017-10-30T08:19:30.512Z,75.20
2017-10-30T08:21:58.024Z,75.10
2017-10-30T08:24:25.596Z,74.10
2017-10-30T08:26:53.133Z,73.60
2017-10-30T08:29:20.668Z,73.30
2017-10-30T08:31:49.004Z,72.70
2017-10-30T08:34:16.515Z,72.60
2017-10-30T08:36:44.844Z,72.20
2017-10-30T08:39:12.412Z,72.00
2017-10-30T08:41:39.954Z,71.60
2017-10-30T08:44:07.456Z,71.90
2017-10-30T08:46:34.957Z,70.30
2017-10-30T08:49:02.488Z,71.00
2017-10-30T08:51:30.777Z,69.70
2017-10-30T08:53:58.330Z,69.60
2017-10-30T08:56:26.605Z,68.80
2017-10-30T08:58:54.129Z,68.80
2017-10-30T09:01:21.651Z,70.20
2017-10-30T09:03:49.191Z,70.30
2017-10-30T09:06:16.704Z,69.60
2017-10-30T09:08:44.244Z,69.60
2017-10-30T09:11:11.787Z,69.60
2017-10-30T09:13:39.456Z,68.60
2017-10-30T09:16:07.059Z,68.30
2017-10-30T09:18:34.566Z,68.80
2017-10-30T09:21:02.073Z,68.80
2017-10-30T09:23:30.115Z,70.00
2017-10-30T09:25:57.671Z,69.70
2017-10-30T09:28:25.208Z,69.40
2017-10-30T09:30:53.537Z,69.80
2017-10-30T09:33:21.087Z,69.70
2017-10-30T09:35:48.608Z,69.70
2017-10-30T09:38:16.112Z,69.70
2017-10-30T09:40:43.608Z,70.30
2017-10-30T09:43:11.139Z,69.30
2017-10-30T09:45:39.659Z,69.70
2017-10-30T09:48:07.179Z,69.70
2017-10-30T09:50:34.688Z,69.00
2017-10-30T09:53:02.235Z,69.50
2017-10-30T09:55:30.616Z,70.00
2017-10-30T09:57:58.117Z,70.40
2017-10-30T10:00:25.682Z,71.10
2017-10-30T10:02:53.201Z,70.80
2017-10-30T10:05:20.749Z,69.80
2017-10-30T10:07:48.361Z,69.30
2017-10-30T10:10:15.855Z,68.80
2017-10-30T10:12:43.571Z,66.40
2017-10-30T10:15:11.101Z,63.20
2017-10-30T10:17:38.684Z,61.50
2017-10-30T10:20:06.200Z,61.50
2017-10-30T10:22:33.742Z,60.80
2017-10-30T10:25:01.307Z,60.80
2017-10-30T10:27:28.834Z,60.80
2017-10-30T10:29:56.764Z,61.00
2017-10-30T10:32:24.302Z,61.40
2017-10-30T10:34:51.871Z,61.20
2017-10-30T10:37:19.455Z,61.50
2017-10-30T10:39:47.151Z,60.60
2017-10-30T10:42:14.697Z,60.60
2017-10-30T10:44:42.272Z,61.50
2017-10-30T10:47:09.826Z,61.60
2017-10-30T10:49:37.339Z,61.20
2017-10-30T10:52:04.912Z,60.70
2017-10-30T10:54:32.431Z,60.60
2017-10-30T10:57:00.004Z,60.10
2017-10-30T10:59:27.980Z,59.90
2017-10-30T11:01:55.483Z,59.30
2017-10-30T11:04:23.090Z,58.50
2017-10-30T11:06:50.599Z,58.60
2017-10-30T11:09:18.625Z,59.60
2017-10-30T11:11:46.163Z,59.00
2017-10-30T11:14:13.709Z,58.90
2017-10-30T11:16:41.231Z,59.10
2017-10-30T11:19:08.833Z,58.50
2017-10-30T11:21:37.157Z,58.70
2017-10-30T11:24:04.734Z,58.60
2017-10-30T11:26:32.883Z,58.20
2017-10-30T11:29:00.405Z,56.00
2017-10-30T11:31:28.757Z,54.70
2017-10-30T11:33:56.278Z,54.60
2017-10-30T11:36:23.807Z,53.80
2017-10-30T11:38:52.078Z,53.30
2017-10-30T11:41:20.429Z,54.40
2017-10-30T11:43:47.925Z,54.40
2017-10-30T11:46:15.450Z,54.40
2017-10-30T11:48:43.014Z,55.30
2017-10-30T11:51:10.526Z,55.20
2017-10-30T11:53:38.026Z,54.60
2017-10-30T11:56:05.555Z,55.70
2017-10-30T11:58:33.049Z,55.60
2017-10-30T12:01:00.600Z,54.60
2017-10-30T12:03:28.092Z,53.50
2017-10-30T12:05:55.604Z,52.90
2017-10-30T12:08:23.131Z,53.90
2017-10-30T12:10:50.645Z,54.20
2017-10-30T12:13:18.173Z,54.50
2017-10-30T12:15:45.734Z,54.10
2017-10-30T12:18:13.257Z,53.60
2017-10-30T12:20:40.825Z,54.30
2017-10-30T12:23:08.333Z,54.10
2017-10-30T12:25:36.298Z,53.70
2017-10-30T12:28:04.430Z,54.60
2017-10-30T12:30:31.941Z,53.20
2017-10-30T12:32:59.684Z,51.80
2017-10-30T12:35:27.196Z,51.20
2017-10-30T12:37:54.707Z,50.60
2017-10-30T12:40:22.263Z,49.60
2017-10-30T12:42:49.792Z,50.60
2017-10-30T12:45:17.706Z,49.40
2017-10-30T12:47:45.217Z,49.70
2017-10-30T12:50:12.742Z,50.80
2017-10-30T12:52:41.065Z,51.80
2017-10-30T12:55:08.573Z,51.70
2017-10-30T12:57:36.066Z,52.90
2017-10-30T13:00:03.618Z,53.50
2017-10-30T13:02:31.914Z,54.20
2017-10-30T13:04:59.426Z,54.10
2017-10-30T13:07:26.994Z,52.60
2017-10-30T13:09:54.504Z,51.30
2017-10-30T13:12:21.999Z,52.00
2017-10-30T13:14:49.568Z,53.70
2017-10-30T13:17:17.076Z,53.80
2017-10-30T13:19:44.584Z,54.60
2017-10-30T13:22:12.133Z,55.90
2017-10-30T13:24:39.642Z,55.50
2017-10-30T13:27:07.172Z,56.00
2017-10-30T13:29:35.460Z,53.10
2017-10-30T13:32:02.960Z,53.00
2017-10-30T13:34:30.530Z,52.30
2017-10-30T13:36:58.061Z,53.00
2017-10-30T13:39:25.564Z,50.60
2017-10-30T13:41:53.116Z,47.60
2017-10-30T13:44:20.618Z,47.50
2017-10-30T13:46:48.887Z,49.10
2017-10-30T13:49:16.376Z,47.10
2017-10-30T13:51:43.879Z,50.00
2017-10-30T13:54:11.421Z,50.50
2017-10-30T13:56:38.925Z,51.90
2017-10-30T13:59:06.415Z,52.10
2017-10-30T14:01:33.972Z,53.80
2017-10-30T14:04:01.464Z,53.20
2017-10-30T14:06:28.973Z,54.00
2017-10-30T14:08:56.502Z,55.20
2017-10-30T14:11:24.774Z,56.80
2017-10-30T14:13:52.299Z,56.60
2017-10-30T14:16:19.852Z,56.70
2017-10-30T14:18:47.361Z,56.00
2017-10-30T14:21:15.404Z,56.10
2017-10-30T14:23:42.947Z,56.50
2017-10-30T14:26:10.443Z,56.30
2017-10-30T14:28:37.989Z,55.80
2017-10-30T14:31:05.526Z,56.80
2017-10-30T14:33:33.043Z,58.30
2017-10-30T14:36:00.586Z,57.70
2017-10-30T14:38:28.864Z,58.50
2017-10-30T14:40:57.124Z,59.00
2017-10-30T14:43:25.416Z,58.70
2017-10-30T14:45:52.973Z,58.50
2017-10-30T14:48:21.198Z,56.90
2017-10-30T14:50:48.719Z,55.50
2017-10-30T14:53:16.230Z,54.40
2017-10-30T14:55:43.792Z,53.20
2017-10-30T14:58:11.347Z,53.10
2017-10-30T15:00:38.847Z,52.70
2017-10-30T15:03:07.110Z,54.50
2017-10-30T15:05:35.189Z,54.50
2017-10-30T15:08:03.261Z,53.90
2017-10-30T15:10:30.756Z,53.20
2017-10-30T15:12:58.304Z,53.60
2017-10-30T15:15:25.815Z,53.50
2017-10-30T15:17:53.349Z,54.00
2017-10-30T15:20:21.042Z,54.50
2017-10-30T15:22:48.568Z,54.40
2017-10-30T15:25:16.106Z,55.40
2017-10-30T15:27:43.703Z,55.50
2017-10-30T15:30:11.235Z,56.60
2017-10-30T15:32:38.825Z,57.20
2017-10-30T15:35:06.331Z,57.30
2017-10-30T15:37:33.862Z,58.00
2017-10-30T15:40:02.139Z,59.50
2017-10-30T15:42:29.644Z,59.40
2017-10-30T15:44:57.187Z,60.90
2017-10-30T15:47:24.679Z,61.90
2017-10-30T15:49:52.229Z,62.90
2017-10-30T15:52:20.479Z,63.40
2017-10-30T15:54:48.046Z,63.20
2017-10-30T15:57:15.576Z,64.30
2017-10-30T15:59:43.233Z,64.60
2017-10-30T16:02:11.528Z,64.40
2017-10-30T16:04:39.029Z,64.40
2017-10-30T16:07:06.581Z,64.50
2017-10-30T16:09:34.322Z,65.50
2017-10-30T16:12:01.819Z,65.80
2017-10-30T16:14:29.677Z,66.00
2017-10-30T16:16:57.201Z,66.40
2017-10-30T16:19:24.711Z,66.10
2017-10-30T16:21:52.263Z,66.50
2017-10-30T16:24:19.763Z,66.60
2017-10-30T16:26:47.326Z,66.80
2017-10-30T16:29:14.856Z,67.60
2017-10-30T16:31:42.397Z,68.30
2017-10-30T16:34:09.949Z,68.40
2017-10-30T16:36:38.600Z,69.50
2017-10-30T16:39:06.126Z,69.30
2017-10-30T16:41:33.652Z,69.80
2017-10-30T16:44:01.192Z,70.60
2017-10-30T16:46:28.753Z,71.00
2017-10-30T16:48:56.274Z,71.90
2017-10-30T16:51:23.768Z,72.30
2017-10-30T16:53:52.101Z,72.30
2017-10-30T16:56:19.774Z,72.30
2017-10-30T16:58:47.280Z,72.80
2017-10-30T17:01:14.910Z,73.00
2017-10-30T17:03:42.445Z,73.30
2017-10-30T17:06:10.715Z,74.30
2017-10-30T17:08:38.223Z,74.30
2017-10-30T17:11:06.351Z,74.60
2017-10-30T17:13:33.876Z,74.90
2017-10-30T17:16:01.389Z,74.60
2017-10-30T17:18:29.288Z,74.80
2017-10-30T17:20:56.784Z,76.20
2017-10-30T17:23:24.327Z,76.30
2017-10-30T17:25:51.881Z,76.00
2017-10-30T17:28:19.421Z,75.80
2017-10-30T17:30:47.090Z,76.10
2017-10-30T17:33:14.572Z,76.30
2017-10-30T17:35:42.091Z,77.10
2017-10-30T17:38:09.659Z,77.50
2017-10-30T17:40:37.164Z,77.60
2017-10-30T17:43:04.678Z,78.40
2017-10-30T17:45:32.232Z,78.60
2017-10-30T17:47:59.729Z,78.70
2017-10-30T17:50:27.248Z,78.80
2017-10-30T17:52:54.822Z,79.40
2017-10-30T17:55:22.343Z,79.80
2017-10-30T17:57:49.882Z,79.60
2017-10-30T18:00:17.432Z,79.60
2017-10-30T18:02:45.696Z,80.20
2017-10-30T18:05:13.293Z,80.10
2017-10-30T18:07:40.824Z,80.60
2017-10-30T18:10:09.153Z,81.00
2017-10-30T18:12:36.706Z,80.90
2017-10-30T18:15:04.211Z,81.20
2017-10-30T18:17:32.542Z,81.80
2017-10-30T18:20:00.079Z,81.80
2017-10-30T18:22:27.578Z,82.40
2017-10-30T18:24:55.078Z,83.60
2017-10-30T18:27:23.380Z,82.60
2017-10-30T18:29:50.888Z,82.50
2017-10-30T18:32:18.421Z,82.80
2017-10-30T18:34:45.932Z,82.60
2017-10-30T18:37:13.494Z,83.10
2017-10-30T18:39:40.984Z,83.70
2017-10-30T18:42:08.519Z,82.60
2017-10-30T18:44:36.022Z,83.40
2017-10-30T18:47:03.549Z,84.10
2017-10-30T18:49:31.403Z,83.80
2017-10-30T18:51:59.549Z,84.10
2017-10-30T18:54:27.817Z,83.80
2017-10-30T18:56:55.772Z,83.70
2017-10-30T18:59:23.311Z,83.40
2017-10-30T19:01:50.870Z,82.90
2017-10-30T19:04:18.396Z,83.00
2017-10-30T19:06:45.964Z,83.10
2017-10-30T19:09:13.504Z,82.70
2017-10-30T19:11:41.779Z,82.10
2017-10-30T19:14:09.312Z,82.00
2017-10-30T19:16:36.839Z,81.80
2017-10-30T19:19:04.390Z,81.80
2017-10-30T19:21:31.911Z,81.50
2017-10-30T19:24:00.182Z,81.10
2017-10-30T19:26:28.499Z,81.00
2017-10-30T19:28:56.002Z,80.90
2017-10-30T19:31:24.312Z,80.60
2017-10-30T19:33:51.856Z,80.50
2017-10-30T19:36:20.123Z,80.40
2017-10-30T19:38:47.661Z,80.20
2017-10-30T19:41:15.222Z,80.10
2017-10-30T19:43:42.731Z,79.70
2017-10-30T19:46:10.255Z,79.80
2017-10-30T19:48:37.776Z,79.30
2017-10-30T19:51:05.274Z,79.10
2017-10-30T19:53:32.839Z,79.40
2017-10-30T19:56:00.349Z,79.60
2017-10-30T19:58:27.849Z,79.50
2017-10-30T20:00:55.429Z,79.50
2017-10-30T20:03:23.697Z,80.30
2017-10-30T20:05:57.513Z,80.20
2017-10-30T20:08:31.437Z,80.30
2017-10-30T20:11:04.934Z,80.30
2017-10-30T20:13:32.447Z,80.20
2017-10-30T20:15:59.957Z,80.70
2017-10-30T20:18:27.485Z,81.10
2017-10-30T20:20:55.012Z,81.30
2017-10-30T20:23:22.840Z,81.20
2017-10-30T20:25:50.385Z,81.20
2017-10-30T20:28:17.921Z,81.20
2017-10-30T20:30:45.480Z,81.30
2017-10-30T20:33:12.986Z,81.40
2017-10-30T20:35:40.485Z,81.30
2017-10-30T20:38:08.027Z,81.30
2017-10-30T20:40:35.558Z,81.50
2017-10-30T20:43:03.144Z,81.40
2017-10-30T20:45:30.636Z,82.00
2017-10-30T20:47:58.964Z,81.80
2017-10-30T20:50:26.469Z,81.80
2017-10-30T20:52:54.003Z,81.40
2017-10-30T20:55:21.510Z,81.60
2017-10-30T20:57:49.827Z,81.80
2017-10-30T21:00:17.431Z,81.80
2017-10-30T21:02:44.977Z,81.50
2017-10-30T21:05:12.535Z,81.50
2017-10-30T21:07:40.071Z,82.10
2017-10-30T21:10:07.641Z,81.90
2017-10-30T21:12:35.150Z,81.50
2017-10-30T21:15:02.735Z,81.30
2017-10-30T21:17:30.246Z,81.00
2017-10-30T21:19:57.774Z,81.00
2017-10-30T21:22:25.336Z,80.80
2017-10-30T21:24:52.847Z,80.70
2017-10-30T21:27:20.532Z,81.20
2017-10-30T21:29:48.074Z,81.10
2017-10-30T21:32:15.577Z,80.60
2017-10-30T21:34:43.102Z,80.40
2017-10-30T21:37:10.651Z,80.30
2017-10-30T21:39:38.227Z,80.00
2017-10-30T21:42:05.727Z,80.20
2017-10-30T21:44:33.237Z,80.10
2017-10-30T21:47:00.764Z,80.20
2017-10-30T21:49:28.303Z,80.60
2017-10-30T21:51:55.816Z,81.60
2017-10-30T21:54:23.369Z,81.50
2017-10-30T21:56:50.912Z,81.10
2017-10-30T21:59:18.421Z,80.80
2017-10-30T22:01:45.986Z,80.60
2017-10-30T22:04:13.513Z,80.90
2017-10-30T22:06:41.076Z,81.00
2017-10-30T22:09:09.074Z,81.30
2017-10-30T22:11:36.615Z,82.00
2017-10-30T22:14:04.193Z,82.20
2017-10-30T22:16:31.723Z,82.20
2017-10-30T22:18:59.301Z,82.90
2017-10-30T22:21:26.815Z,83.90
2017-10-30T22:23:54.339Z,84.00
2017-10-30T22:26:21.899Z,83.90
2017-10-30T22:28:49.392Z,84.60
2017-10-30T22:31:16.931Z,85.00
2017-10-30T22:33:45.200Z,86.70
2017-10-30T22:36:12.730Z,86.70
2017-10-30T22:38:40.260Z,86.50
2017-10-30T22:41:07.763Z,86.50
2017-10-30T22:43:35.603Z,86.30
2017-10-30T22:46:03.116Z,86.50
2017-10-30T22:48:30.612Z,86.50
2017-10-30T22:50:58.921Z,85.80
2017-10-30T22:53:26.462Z,86.30
2017-10-30T22:55:53.978Z,86.70
2017-10-30T22:58:22.274Z,86.60
2017-10-30T23:00:49.823Z,86.40
2017-10-30T23:03:17.363Z,86.50
2017-10-30T23:05:44.889Z,87.30
2017-10-30T23:08:12.422Z,87.50
2017-10-30T23:10:40.880Z,87.70
2017-10-30T23:13:08.448Z,87.70
2017-10-30T23:15:35.955Z,88.50
2017-10-30T23:18:03.505Z,88.00
2017-10-30T23:20:31.012Z,88.50
2017-10-30T23:22:58.505Z,88.90
2017-10-30T23:25:26.051Z,89.60
2017-10-30T23:27:53.751Z,88.70
2017-10-30T23:30:21.284Z,88.10
2017-10-30T23:32:48.840Z,88.30
2017-10-30T23:35:16.359Z,88.30
2017-10-30T23:37:44.623Z,87.30
2017-10-30T23:40:12.173Z,87.30
2017-10-30T23:42:39.669Z,87.60
2017-10-30T23:45:07.172Z,87.90
2017-10-30T23:47:34.708Z,87.10
2017-10-30T23:50:02.404Z,87.70
2017-10-30T23:52:29.943Z,88.10
2017-10-30T23:54:57.501Z,87.50
2017-10-30T23:57:25.026Z,87.50
2017-10-30T23:59:52.570Z,87.80
